sensor_id;sensor_type;location;lat;lon;timestamp;temperature;humidity
21801;DHT22;11062;51.164;16.924;2023-07-20T00:00:51;34.50;47.30
21801;DHT22;11062;51.164;16.924;2023-07-20T00:03:19;34.40;47.20
21801;DHT22;11062;51.164;16.924;2023-07-20T00:05:51;34.40;47.50
21801;DHT22;11062;51.164;16.924;2023-07-20T00:08:18;34.10;48.50
21801;DHT22;11062;51.164;16.924;2023-07-20T00:10:44;34.10;48.60
21801;DHT22;11062;51.164;16.924;2023-07-20T00:13:11;34.10;48.40
21801;DHT22;11062;51.164;16.924;2023-07-20T00:15:37;34.00;48.90
21801;DHT22;11062;51.164;16.924;2023-07-20T00:18:04;33.80;49.00
21801;DHT22;11062;51.164;16.924;2023-07-20T03:54:36;33.70;48.50
21801;DHT22;11062;51.164;16.924;2023-07-20T04:26:21;34.50;48.40
21801;DHT22;11062;51.164;16.924;2023-07-20T04:29:41;34.60;48.20
21801;DHT22;11062;51.164;16.924;2023-07-20T04:39:53;34.70;47.80
21801;DHT22;11062;51.164;16.924;2023-07-20T04:42:44;34.60;48.00
21801;DHT22;11062;51.164;16.924;2023-07-20T04:49:02;34.60;48.10
21801;DHT22;11062;51.164;16.924;2023-07-20T04:51:49;34.80;48.50
21801;DHT22;11062;51.164;16.924;2023-07-20T04:54:19;34.90;48.10
21801;DHT22;11062;51.164;16.924;2023-07-20T04:56:45;34.90;48.00
21801;DHT22;11062;51.164;16.924;2023-07-20T04:59:10;35.00;48.30
21801;DHT22;11062;51.164;16.924;2023-07-20T05:01:39;35.00;47.90
21801;DHT22;11062;51.164;16.924;2023-07-20T05:04:05;35.00;48.00
21801;DHT22;11062;51.164;16.924;2023-07-20T05:06:31;35.00;48.00
21801;DHT22;11062;51.164;16.924;2023-07-20T05:08:57;35.00;47.90
21801;DHT22;11062;51.164;16.924;2023-07-20T05:11:26;35.00;48.00
21801;DHT22;11062;51.164;16.924;2023-07-20T05:13:52;34.80;48.10
21801;DHT22;11062;51.164;16.924;2023-07-20T05:16:21;34.80;48.40
21801;DHT22;11062;51.164;16.924;2023-07-20T05:18:49;34.70;48.70
21801;DHT22;11062;51.164;16.924;2023-07-20T05:21:15;34.80;49.10
21801;DHT22;11062;51.164;16.924;2023-07-20T05:23:44;34.70;48.90
21801;DHT22;11062;51.164;16.924;2023-07-20T05:26:11;34.60;48.90
21801;DHT22;11062;51.164;16.924;2023-07-20T05:28:37;34.60;48.50
21801;DHT22;11062;51.164;16.924;2023-07-20T05:31:03;34.50;49.00
21801;DHT22;11062;51.164;16.924;2023-07-20T05:33:32;34.50;48.50
21801;DHT22;11062;51.164;16.924;2023-07-20T05:36:03;34.40;48.60
21801;DHT22;11062;51.164;16.924;2023-07-20T05:38:29;34.80;48.90
21801;DHT22;11062;51.164;16.924;2023-07-20T05:41:01;34.80;48.20
21801;DHT22;11062;51.164;16.924;2023-07-20T05:43:37;35.10;48.20
21801;DHT22;11062;51.164;16.924;2023-07-20T05:46:03;35.40;47.90
21801;DHT22;11062;51.164;16.924;2023-07-20T05:48:29;35.50;47.80
21801;DHT22;11062;51.164;16.924;2023-07-20T05:50:58;35.50;47.70
21801;DHT22;11062;51.164;16.924;2023-07-20T05:53:24;35.60;47.70
21801;DHT22;11062;51.164;16.924;2023-07-20T05:55:56;35.70;47.10
21801;DHT22;11062;51.164;16.924;2023-07-20T05:58:24;35.90;47.30
21801;DHT22;11062;51.164;16.924;2023-07-20T06:01:04;36.00;47.60
21801;DHT22;11062;51.164;16.924;2023-07-20T06:03:49;36.00;47.30
21801;DHT22;11062;51.164;16.924;2023-07-20T06:06:22;36.00;47.10
21801;DHT22;11062;51.164;16.924;2023-07-20T06:08:51;36.10;47.40
21801;DHT22;11062;51.164;16.924;2023-07-20T06:11:16;36.00;46.60
21801;DHT22;11062;51.164;16.924;2023-07-20T06:13:43;35.90;46.80
21801;DHT22;11062;51.164;16.924;2023-07-20T06:16:09;35.80;46.50
21801;DHT22;11062;51.164;16.924;2023-07-20T06:18:35;35.80;47.00
21801;DHT22;11062;51.164;16.924;2023-07-20T06:21:04;35.70;46.80
21801;DHT22;11062;51.164;16.924;2023-07-20T06:23:35;35.50;46.90
21801;DHT22;11062;51.164;16.924;2023-07-20T06:26:01;35.50;47.20
21801;DHT22;11062;51.164;16.924;2023-07-20T06:28:29;35.30;47.10
21801;DHT22;11062;51.164;16.924;2023-07-20T06:31:01;35.30;47.60
21801;DHT22;11062;51.164;16.924;2023-07-20T06:33:27;35.40;47.50
21801;DHT22;11062;51.164;16.924;2023-07-20T06:35:53;35.40;47.40
21801;DHT22;11062;51.164;16.924;2023-07-20T06:38:21;35.40;47.50
21801;DHT22;11062;51.164;16.924;2023-07-20T06:40:49;35.60;47.10
21801;DHT22;11062;51.164;16.924;2023-07-20T06:43:16;35.70;47.40
21801;DHT22;11062;51.164;16.924;2023-07-20T06:45:42;35.80;47.20
21801;DHT22;11062;51.164;16.924;2023-07-20T06:48:10;35.80;47.00
21801;DHT22;11062;51.164;16.924;2023-07-20T06:50:36;35.60;47.30
21801;DHT22;11062;51.164;16.924;2023-07-20T06:53:02;35.80;47.10
21801;DHT22;11062;51.164;16.924;2023-07-20T06:55:35;35.60;47.00
21801;DHT22;11062;51.164;16.924;2023-07-20T06:58:03;35.70;47.00
21801;DHT22;11062;51.164;16.924;2023-07-20T07:00:29;35.80;46.50
21801;DHT22;11062;51.164;16.924;2023-07-20T07:02:58;35.70;47.30
21801;DHT22;11062;51.164;16.924;2023-07-20T07:05:24;35.70;46.60
21801;DHT22;11062;51.164;16.924;2023-07-20T07:07:50;35.50;46.60
21801;DHT22;11062;51.164;16.924;2023-07-20T07:10:15;35.60;46.90
21801;DHT22;11062;51.164;16.924;2023-07-20T07:12:41;35.70;47.10
21801;DHT22;11062;51.164;16.924;2023-07-20T07:15:10;35.70;46.60
21801;DHT22;11062;51.164;16.924;2023-07-20T07:17:36;36.00;47.00
21801;DHT22;11062;51.164;16.924;2023-07-20T07:20:06;36.00;46.50
21801;DHT22;11062;51.164;16.924;2023-07-20T07:22:34;35.90;46.80
21801;DHT22;11062;51.164;16.924;2023-07-20T07:25:00;35.70;45.50
21801;DHT22;11062;51.164;16.924;2023-07-20T07:27:28;35.70;46.50
21801;DHT22;11062;51.164;16.924;2023-07-20T07:29:54;35.60;46.50
21801;DHT22;11062;51.164;16.924;2023-07-20T07:32:24;35.30;46.60
21801;DHT22;11062;51.164;16.924;2023-07-20T07:34:50;35.30;46.40
21801;DHT22;11062;51.164;16.924;2023-07-20T07:37:16;35.10;47.00
21801;DHT22;11062;51.164;16.924;2023-07-20T07:39:45;35.40;47.50
21801;DHT22;11062;51.164;16.924;2023-07-20T07:42:12;35.30;46.90
21801;DHT22;11062;51.164;16.924;2023-07-20T07:44:38;35.30;47.00
21801;DHT22;11062;51.164;16.924;2023-07-20T07:47:04;35.30;46.30
21801;DHT22;11062;51.164;16.924;2023-07-20T07:49:30;35.10;46.40
21801;DHT22;11062;51.164;16.924;2023-07-20T07:51:59;35.10;46.10
21801;DHT22;11062;51.164;16.924;2023-07-20T07:54:28;35.20;46.00
21801;DHT22;11062;51.164;16.924;2023-07-20T07:56:54;35.30;46.10
21801;DHT22;11062;51.164;16.924;2023-07-20T07:59:23;35.30;46.50
21801;DHT22;11062;51.164;16.924;2023-07-20T08:01:48;35.30;46.90
21801;DHT22;11062;51.164;16.924;2023-07-20T08:04:14;35.10;47.00
21801;DHT22;11062;51.164;16.924;2023-07-20T08:06:40;35.00;47.00
21801;DHT22;11062;51.164;16.924;2023-07-20T08:09:06;34.80;46.60
21801;DHT22;11062;51.164;16.924;2023-07-20T08:11:32;34.70;46.40
21801;DHT22;11062;51.164;16.924;2023-07-20T08:14:03;34.50;46.10
21801;DHT22;11062;51.164;16.924;2023-07-20T08:16:32;34.60;47.00
21801;DHT22;11062;51.164;16.924;2023-07-20T08:18:58;34.50;46.40
21801;DHT22;11062;51.164;16.924;2023-07-20T08:21:36;34.70;45.90
21801;DHT22;11062;51.164;16.924;2023-07-20T08:24:16;35.00;45.30
21801;DHT22;11062;51.164;16.924;2023-07-20T08:26:42;35.30;45.30
21801;DHT22;11062;51.164;16.924;2023-07-20T08:29:08;35.60;44.90
21801;DHT22;11062;51.164;16.924;2023-07-20T08:31:37;35.80;44.30
21801;DHT22;11062;51.164;16.924;2023-07-20T08:34:12;36.10;44.10
21801;DHT22;11062;51.164;16.924;2023-07-20T08:36:38;35.90;43.50
21801;DHT22;11062;51.164;16.924;2023-07-20T08:39:04;35.70;43.20
21801;DHT22;11062;51.164;16.924;2023-07-20T08:41:34;35.90;43.90
21801;DHT22;11062;51.164;16.924;2023-07-20T08:44:01;35.70;43.70
21801;DHT22;11062;51.164;16.924;2023-07-20T08:46:33;35.70;43.90
21801;DHT22;11062;51.164;16.924;2023-07-20T08:49:02;35.50;44.30
21801;DHT22;11062;51.164;16.924;2023-07-20T08:51:35;35.80;43.70
21801;DHT22;11062;51.164;16.924;2023-07-20T08:54:02;35.30;43.50
21801;DHT22;11062;51.164;16.924;2023-07-20T08:56:31;35.40;43.80
21801;DHT22;11062;51.164;16.924;2023-07-20T08:58:59;35.90;44.20
21801;DHT22;11062;51.164;16.924;2023-07-20T09:01:27;35.90;42.60
21801;DHT22;11062;51.164;16.924;2023-07-20T09:03:54;35.90;41.80
21801;DHT22;11062;51.164;16.924;2023-07-20T09:06:19;36.00;41.90
21801;DHT22;11062;51.164;16.924;2023-07-20T09:08:45;35.80;41.50
21801;DHT22;11062;51.164;16.924;2023-07-20T09:11:14;35.70;41.20
21801;DHT22;11062;51.164;16.924;2023-07-20T09:13:40;35.80;42.40
21801;DHT22;11062;51.164;16.924;2023-07-20T09:16:11;35.90;42.60
21801;DHT22;11062;51.164;16.924;2023-07-20T09:18:38;36.10;42.80
21801;DHT22;11062;51.164;16.924;2023-07-20T09:21:05;36.10;42.80
21801;DHT22;11062;51.164;16.924;2023-07-20T09:23:37;36.30;42.30
21801;DHT22;11062;51.164;16.924;2023-07-20T09:26:11;36.30;41.60
21801;DHT22;11062;51.164;16.924;2023-07-20T09:28:53;36.40;42.10
21801;DHT22;11062;51.164;16.924;2023-07-20T09:31:21;36.00;42.40
21801;DHT22;11062;51.164;16.924;2023-07-20T09:33:52;36.30;42.80
21801;DHT22;11062;51.164;16.924;2023-07-20T09:36:18;36.50;41.60
21801;DHT22;11062;51.164;16.924;2023-07-20T09:38:47;36.50;40.40
21801;DHT22;11062;51.164;16.924;2023-07-20T09:41:18;36.20;40.50
21801;DHT22;11062;51.164;16.924;2023-07-20T09:43:49;36.40;40.40
21801;DHT22;11062;51.164;16.924;2023-07-20T09:46:15;36.50;40.40
21801;DHT22;11062;51.164;16.924;2023-07-20T09:48:54;36.70;40.20
21801;DHT22;11062;51.164;16.924;2023-07-20T09:51:24;35.90;38.70
21801;DHT22;11062;51.164;16.924;2023-07-20T09:53:52;35.50;40.40
21801;DHT22;11062;51.164;16.924;2023-07-20T09:56:21;35.60;40.20
21801;DHT22;11062;51.164;16.924;2023-07-20T09:58:50;35.60;40.40
21801;DHT22;11062;51.164;16.924;2023-07-20T10:01:20;35.60;40.90
21801;DHT22;11062;51.164;16.924;2023-07-20T10:03:53;35.90;40.40
21801;DHT22;11062;51.164;16.924;2023-07-20T10:06:56;36.20;40.40
21801;DHT22;11062;51.164;16.924;2023-07-20T10:09:35;36.50;40.00
21801;DHT22;11062;51.164;16.924;2023-07-20T10:12:02;36.20;39.00
21801;DHT22;11062;51.164;16.924;2023-07-20T10:14:33;36.50;39.20
21801;DHT22;11062;51.164;16.924;2023-07-20T10:17:01;36.60;38.20
21801;DHT22;11062;51.164;16.924;2023-07-20T10:19:43;36.70;38.70
21801;DHT22;11062;51.164;16.924;2023-07-20T10:25:37;36.90;38.80
21801;DHT22;11062;51.164;16.924;2023-07-20T10:28:27;37.10;38.70
21801;DHT22;11062;51.164;16.924;2023-07-20T10:31:26;37.20;37.80
21801;DHT22;11062;51.164;16.924;2023-07-20T10:33:56;37.30;38.20
21801;DHT22;11062;51.164;16.924;2023-07-20T10:36:27;37.40;38.00
21801;DHT22;11062;51.164;16.924;2023-07-20T10:39:01;37.30;37.90
21801;DHT22;11062;51.164;16.924;2023-07-20T10:41:40;37.40;37.00
21801;DHT22;11062;51.164;16.924;2023-07-20T10:44:11;37.50;37.10
21801;DHT22;11062;51.164;16.924;2023-07-20T10:46:48;37.60;37.10
21801;DHT22;11062;51.164;16.924;2023-07-20T10:49:14;37.90;36.80
21801;DHT22;11062;51.164;16.924;2023-07-20T10:51:55;38.00;36.80
21801;DHT22;11062;51.164;16.924;2023-07-20T10:57:30;38.20;35.70
21801;DHT22;11062;51.164;16.924;2023-07-20T11:00:14;38.10;35.40
21801;DHT22;11062;51.164;16.924;2023-07-20T11:02:51;38.30;35.30
21801;DHT22;11062;51.164;16.924;2023-07-20T11:05:46;38.20;35.20
21801;DHT22;11062;51.164;16.924;2023-07-20T11:08:41;38.40;35.20
21801;DHT22;11062;51.164;16.924;2023-07-20T11:11:22;38.70;34.70
21801;DHT22;11062;51.164;16.924;2023-07-20T11:14:07;38.50;37.10
21801;DHT22;11062;51.164;16.924;2023-07-20T11:16:45;37.30;41.00
21801;DHT22;11062;51.164;16.924;2023-07-20T11:19:19;36.90;44.30
21801;DHT22;11062;51.164;16.924;2023-07-20T11:21:56;36.60;44.30
21801;DHT22;11062;51.164;16.924;2023-07-20T11:24:26;36.30;44.60
21801;DHT22;11062;51.164;16.924;2023-07-20T11:26:53;36.40;44.70
21801;DHT22;11062;51.164;16.924;2023-07-20T11:29:33;36.30;45.10
21801;DHT22;11062;51.164;16.924;2023-07-20T11:32:55;36.20;45.20
21801;DHT22;11062;51.164;16.924;2023-07-20T11:36:17;36.30;45.60
21801;DHT22;11062;51.164;16.924;2023-07-20T11:39:07;36.10;46.30
21801;DHT22;11062;51.164;16.924;2023-07-20T11:41:43;36.10;47.20
21801;DHT22;11062;51.164;16.924;2023-07-20T11:47:32;35.80;47.10
21801;DHT22;11062;51.164;16.924;2023-07-20T11:50:03;35.20;48.10
21801;DHT22;11062;51.164;16.924;2023-07-20T11:52:37;35.00;48.40
21801;DHT22;11062;51.164;16.924;2023-07-20T11:55:15;34.90;48.40
21801;DHT22;11062;51.164;16.924;2023-07-20T11:58:11;34.90;48.10
21801;DHT22;11062;51.164;16.924;2023-07-20T12:00:39;35.00;47.50
21801;DHT22;11062;51.164;16.924;2023-07-20T12:03:20;35.10;47.50
21801;DHT22;11062;51.164;16.924;2023-07-20T12:05:51;35.30;47.90
21801;DHT22;11062;51.164;16.924;2023-07-20T12:08:27;35.20;47.70
21801;DHT22;11062;51.164;16.924;2023-07-20T12:10:58;35.30;47.40
21801;DHT22;11062;51.164;16.924;2023-07-20T12:13:58;35.20;46.20
21801;DHT22;11062;51.164;16.924;2023-07-20T12:16:53;35.50;46.40
21801;DHT22;11062;51.164;16.924;2023-07-20T12:19:42;35.90;46.60
21801;DHT22;11062;51.164;16.924;2023-07-20T12:22:50;35.70;46.50
21801;DHT22;11062;51.164;16.924;2023-07-20T12:25:20;35.70;45.30
21801;DHT22;11062;51.164;16.924;2023-07-20T12:28:10;35.50;44.50
21801;DHT22;11062;51.164;16.924;2023-07-20T12:30:49;35.50;44.60
21801;DHT22;11062;51.164;16.924;2023-07-20T12:33:46;35.50;45.20
21801;DHT22;11062;51.164;16.924;2023-07-20T12:36:24;35.40;46.20
21801;DHT22;11062;51.164;16.924;2023-07-20T12:39:16;35.40;47.90
21801;DHT22;11062;51.164;16.924;2023-07-20T12:42:10;35.60;46.50
21801;DHT22;11062;51.164;16.924;2023-07-20T12:44:51;35.90;45.70
21801;DHT22;11062;51.164;16.924;2023-07-20T12:47:42;35.80;45.30
21801;DHT22;11062;51.164;16.924;2023-07-20T12:50:16;35.80;44.80
21801;DHT22;11062;51.164;16.924;2023-07-20T12:52:51;36.00;44.90
21801;DHT22;11062;51.164;16.924;2023-07-20T12:55:51;36.30;44.50
21801;DHT22;11062;51.164;16.924;2023-07-20T13:01:52;37.00;44.30
21801;DHT22;11062;51.164;16.924;2023-07-20T13:04:48;37.00;43.50
21801;DHT22;11062;51.164;16.924;2023-07-20T13:08:06;37.50;42.60
21801;DHT22;11062;51.164;16.924;2023-07-20T13:11:48;37.70;41.40
21801;DHT22;11062;51.164;16.924;2023-07-20T13:21:40;38.80;40.70
21801;DHT22;11062;51.164;16.924;2023-07-20T13:24:08;39.30;39.60
21801;DHT22;11062;51.164;16.924;2023-07-20T13:26:40;39.40;38.60
21801;DHT22;11062;51.164;16.924;2023-07-20T13:29:06;39.00;36.10
21801;DHT22;11062;51.164;16.924;2023-07-20T13:31:32;39.10;37.50
21801;DHT22;11062;51.164;16.924;2023-07-20T13:33:58;38.80;36.10
21801;DHT22;11062;51.164;16.924;2023-07-20T13:36:24;39.00;36.90
21801;DHT22;11062;51.164;16.924;2023-07-20T13:38:53;39.20;38.00
21801;DHT22;11062;51.164;16.924;2023-07-20T13:41:22;39.20;37.90
21801;DHT22;11062;51.164;16.924;2023-07-20T13:43:54;39.70;36.80
21801;DHT22;11062;51.164;16.924;2023-07-20T13:46:20;39.90;34.90
21801;DHT22;11062;51.164;16.924;2023-07-20T13:48:54;40.20;36.20
21801;DHT22;11062;51.164;16.924;2023-07-20T13:51:22;40.40;35.10
21801;DHT22;11062;51.164;16.924;2023-07-20T13:53:48;40.50;35.80
21801;DHT22;11062;51.164;16.924;2023-07-20T13:56:14;40.70;35.00
21801;DHT22;11062;51.164;16.924;2023-07-20T13:58:46;41.00;34.90
21801;DHT22;11062;51.164;16.924;2023-07-20T14:01:12;40.90;35.00
21801;DHT22;11062;51.164;16.924;2023-07-20T14:03:46;40.40;35.30
21801;DHT22;11062;51.164;16.924;2023-07-20T14:06:17;40.60;34.30
21801;DHT22;11062;51.164;16.924;2023-07-20T14:08:46;40.90;34.90
21801;DHT22;11062;51.164;16.924;2023-07-20T14:11:13;41.30;34.30
21801;DHT22;11062;51.164;16.924;2023-07-20T14:13:39;41.40;33.40
21801;DHT22;11062;51.164;16.924;2023-07-20T14:16:05;42.10;34.60
21801;DHT22;11062;51.164;16.924;2023-07-20T14:18:31;42.50;34.20
21801;DHT22;11062;51.164;16.924;2023-07-20T14:20:57;42.80;32.80
21801;DHT22;11062;51.164;16.924;2023-07-20T14:23:28;43.00;32.80
21801;DHT22;11062;51.164;16.924;2023-07-20T14:25:54;43.10;32.30
21801;DHT22;11062;51.164;16.924;2023-07-20T14:28:23;43.00;31.80
21801;DHT22;11062;51.164;16.924;2023-07-20T14:30:52;43.00;32.00
21801;DHT22;11062;51.164;16.924;2023-07-20T14:33:21;42.80;31.80
21801;DHT22;11062;51.164;16.924;2023-07-20T14:35:47;42.40;32.60
21801;DHT22;11062;51.164;16.924;2023-07-20T14:38:13;42.40;32.70
21801;DHT22;11062;51.164;16.924;2023-07-20T14:40:47;42.30;32.70
21801;DHT22;11062;51.164;16.924;2023-07-20T14:43:16;42.10;33.10
21801;DHT22;11062;51.164;16.924;2023-07-20T14:45:42;41.80;34.60
21801;DHT22;11062;51.164;16.924;2023-07-20T14:48:11;41.60;36.40
21801;DHT22;11062;51.164;16.924;2023-07-20T14:50:39;41.50;37.20
21801;DHT22;11062;51.164;16.924;2023-07-20T14:53:05;40.90;37.70
21801;DHT22;11062;51.164;16.924;2023-07-20T14:55:31;40.50;39.20
21801;DHT22;11062;51.164;16.924;2023-07-20T14:58:00;40.00;39.20
21801;DHT22;11062;51.164;16.924;2023-07-20T15:00:30;39.70;41.70
21801;DHT22;11062;51.164;16.924;2023-07-20T15:02:56;39.40;41.80
21801;DHT22;11062;51.164;16.924;2023-07-20T15:05:31;39.00;41.10
21801;DHT22;11062;51.164;16.924;2023-07-20T15:08:02;38.70;39.80
21801;DHT22;11062;51.164;16.924;2023-07-20T15:10:35;38.20;41.10
21801;DHT22;11062;51.164;16.924;2023-07-20T15:13:01;38.00;42.10
21801;DHT22;11062;51.164;16.924;2023-07-20T15:15:31;37.90;43.20
21801;DHT22;11062;51.164;16.924;2023-07-20T15:17:57;37.90;42.80
21801;DHT22;11062;51.164;16.924;2023-07-20T15:20:25;37.80;42.80
21801;DHT22;11062;51.164;16.924;2023-07-20T15:22:52;38.00;42.60
21801;DHT22;11062;51.164;16.924;2023-07-20T15:25:18;38.50;41.90
21801;DHT22;11062;51.164;16.924;2023-07-20T15:27:44;39.00;42.30
21801;DHT22;11062;51.164;16.924;2023-07-20T15:30:13;39.30;41.80
21801;DHT22;11062;51.164;16.924;2023-07-20T15:32:40;39.60;39.80
21801;DHT22;11062;51.164;16.924;2023-07-20T15:35:07;39.80;38.70
21801;DHT22;11062;51.164;16.924;2023-07-20T15:37:34;40.00;38.40
21801;DHT22;11062;51.164;16.924;2023-07-20T15:40:02;40.10;38.50
21801;DHT22;11062;51.164;16.924;2023-07-20T15:42:32;40.30;39.80
21801;DHT22;11062;51.164;16.924;2023-07-20T15:45:03;40.40;39.10
21801;DHT22;11062;51.164;16.924;2023-07-20T15:47:29;40.50;38.30
21801;DHT22;11062;51.164;16.924;2023-07-20T15:49:55;40.60;37.80
21801;DHT22;11062;51.164;16.924;2023-07-20T15:52:26;40.60;37.10
21801;DHT22;11062;51.164;16.924;2023-07-20T15:54:55;40.70;36.60
21801;DHT22;11062;51.164;16.924;2023-07-20T15:57:21;40.80;37.80
21801;DHT22;11062;51.164;16.924;2023-07-20T15:59:50;40.80;36.40
21801;DHT22;11062;51.164;16.924;2023-07-20T16:02:18;40.80;35.40
21801;DHT22;11062;51.164;16.924;2023-07-20T16:04:49;41.20;35.30
21801;DHT22;11062;51.164;16.924;2023-07-20T16:07:15;41.30;34.30
21801;DHT22;11062;51.164;16.924;2023-07-20T16:09:41;41.30;33.70
21801;DHT22;11062;51.164;16.924;2023-07-20T16:12:07;41.40;34.00
21801;DHT22;11062;51.164;16.924;2023-07-20T16:14:36;41.20;33.70
21801;DHT22;11062;51.164;16.924;2023-07-20T16:17:03;41.30;34.30
21801;DHT22;11062;51.164;16.924;2023-07-20T16:19:29;41.20;33.90
21801;DHT22;11062;51.164;16.924;2023-07-20T16:21:55;40.70;34.10
21801;DHT22;11062;51.164;16.924;2023-07-20T16:24:21;40.70;34.30
21801;DHT22;11062;51.164;16.924;2023-07-20T16:26:49;40.50;35.00
21801;DHT22;11062;51.164;16.924;2023-07-20T16:29:17;40.40;34.60
21801;DHT22;11062;51.164;16.924;2023-07-20T16:31:46;40.50;34.10
21801;DHT22;11062;51.164;16.924;2023-07-20T16:34:14;40.60;34.60
21801;DHT22;11062;51.164;16.924;2023-07-20T16:36:40;40.50;35.00
21801;DHT22;11062;51.164;16.924;2023-07-20T16:39:09;40.40;35.20
21801;DHT22;11062;51.164;16.924;2023-07-20T16:41:35;40.30;34.90
21801;DHT22;11062;51.164;16.924;2023-07-20T16:44:01;40.10;35.30
21801;DHT22;11062;51.164;16.924;2023-07-20T16:46:27;39.90;35.20
21801;DHT22;11062;51.164;16.924;2023-07-20T16:48:53;39.70;35.60
21801;DHT22;11062;51.164;16.924;2023-07-20T16:51:19;39.50;36.10
21801;DHT22;11062;51.164;16.924;2023-07-20T16:53:45;39.40;35.90
21801;DHT22;11062;51.164;16.924;2023-07-20T16:56:14;39.10;36.20
21801;DHT22;11062;51.164;16.924;2023-07-20T16:58:40;39.30;36.50
21801;DHT22;11062;51.164;16.924;2023-07-20T17:01:06;39.10;36.30
21801;DHT22;11062;51.164;16.924;2023-07-20T17:03:33;38.90;36.50
21801;DHT22;11062;51.164;16.924;2023-07-20T17:06:03;38.80;36.60
21801;DHT22;11062;51.164;16.924;2023-07-20T17:08:31;38.70;36.80
21801;DHT22;11062;51.164;16.924;2023-07-20T17:11:08;38.60;36.90
21801;DHT22;11062;51.164;16.924;2023-07-20T17:13:34;38.50;37.00
21801;DHT22;11062;51.164;16.924;2023-07-20T17:16:00;38.20;36.90
21801;DHT22;11062;51.164;16.924;2023-07-20T17:18:30;38.30;36.50
21801;DHT22;11062;51.164;16.924;2023-07-20T17:20:56;38.10;36.80
21801;DHT22;11062;51.164;16.924;2023-07-20T17:23:31;37.80;37.20
21801;DHT22;11062;51.164;16.924;2023-07-20T17:25:57;37.60;37.30
21801;DHT22;11062;51.164;16.924;2023-07-20T17:28:24;37.40;37.80
21801;DHT22;11062;51.164;16.924;2023-07-20T17:31:05;37.20;38.00
21801;DHT22;11062;51.164;16.924;2023-07-20T17:33:36;37.20;37.50
21801;DHT22;11062;51.164;16.924;2023-07-20T17:36:05;37.10;38.30
21801;DHT22;11062;51.164;16.924;2023-07-20T17:38:34;37.10;37.80
21801;DHT22;11062;51.164;16.924;2023-07-20T17:41:03;37.10;37.70
21801;DHT22;11062;51.164;16.924;2023-07-20T17:43:31;37.10;37.80
21801;DHT22;11062;51.164;16.924;2023-07-20T17:46:02;37.30;37.60
21801;DHT22;11062;51.164;16.924;2023-07-20T17:48:38;37.30;37.70
21801;DHT22;11062;51.164;16.924;2023-07-20T17:51:07;37.40;37.70
21801;DHT22;11062;51.164;16.924;2023-07-20T17:53:36;37.20;37.20
21801;DHT22;11062;51.164;16.924;2023-07-20T17:56:02;36.80;37.80
21801;DHT22;11062;51.164;16.924;2023-07-20T17:58:28;36.60;38.30
21801;DHT22;11062;51.164;16.924;2023-07-20T18:01:01;36.20;38.40
21801;DHT22;11062;51.164;16.924;2023-07-20T18:03:27;36.00;38.70
21801;DHT22;11062;51.164;16.924;2023-07-20T18:05:54;36.10;38.60
21801;DHT22;11062;51.164;16.924;2023-07-20T18:08:20;36.50;38.60
21801;DHT22;11062;51.164;16.924;2023-07-20T18:10:52;36.40;38.80
21801;DHT22;11062;51.164;16.924;2023-07-20T18:13:23;36.20;38.70
21801;DHT22;11062;51.164;16.924;2023-07-20T18:15:56;36.10;39.00
21801;DHT22;11062;51.164;16.924;2023-07-20T18:18:27;36.40;38.80
21801;DHT22;11062;51.164;16.924;2023-07-20T18:20:59;36.60;38.60
21801;DHT22;11062;51.164;16.924;2023-07-20T18:23:30;36.90;38.40
21801;DHT22;11062;51.164;16.924;2023-07-20T18:25:59;37.30;37.90
21801;DHT22;11062;51.164;16.924;2023-07-20T18:28:33;37.60;37.70
21801;DHT22;11062;51.164;16.924;2023-07-20T18:31:05;37.80;37.50
21801;DHT22;11062;51.164;16.924;2023-07-20T18:33:34;37.80;37.10
21801;DHT22;11062;51.164;16.924;2023-07-20T18:36:06;38.00;37.00
21801;DHT22;11062;51.164;16.924;2023-07-20T18:38:33;37.80;37.00
21801;DHT22;11062;51.164;16.924;2023-07-20T18:41:02;37.90;37.40
21801;DHT22;11062;51.164;16.924;2023-07-20T18:43:33;37.70;37.50
21801;DHT22;11062;51.164;16.924;2023-07-20T18:45:59;37.70;37.30
21801;DHT22;11062;51.164;16.924;2023-07-20T18:48:25;37.70;37.30
21801;DHT22;11062;51.164;16.924;2023-07-20T18:51:00;37.80;37.10
21801;DHT22;11062;51.164;16.924;2023-07-20T18:53:29;37.80;37.20
21801;DHT22;11062;51.164;16.924;2023-07-20T18:56:02;37.80;37.50
21801;DHT22;11062;51.164;16.924;2023-07-20T18:58:32;37.70;37.50
21801;DHT22;11062;51.164;16.924;2023-07-20T19:01:00;37.70;37.50
21801;DHT22;11062;51.164;16.924;2023-07-20T19:03:29;38.00;37.30
21801;DHT22;11062;51.164;16.924;2023-07-20T19:06:01;37.80;37.40
21801;DHT22;11062;51.164;16.924;2023-07-20T19:08:28;37.80;37.10
21801;DHT22;11062;51.164;16.924;2023-07-20T19:11:02;37.80;37.40
21801;DHT22;11062;51.164;16.924;2023-07-20T19:13:34;37.80;37.40
21801;DHT22;11062;51.164;16.924;2023-07-20T19:16:00;37.70;37.70
21801;DHT22;11062;51.164;16.924;2023-07-20T19:18:29;37.70;37.80
21801;DHT22;11062;51.164;16.924;2023-07-20T19:20:59;37.50;37.80
21801;DHT22;11062;51.164;16.924;2023-07-20T19:23:26;37.40;38.00
21801;DHT22;11062;51.164;16.924;2023-07-20T19:25:52;37.30;38.10
21801;DHT22;11062;51.164;16.924;2023-07-20T19:28:21;37.00;38.30
21801;DHT22;11062;51.164;16.924;2023-07-20T19:30:47;37.00;38.50
21801;DHT22;11062;51.164;16.924;2023-07-20T19:33:19;36.90;38.70
21801;DHT22;11062;51.164;16.924;2023-07-20T19:35:46;36.70;39.00
21801;DHT22;11062;51.164;16.924;2023-07-20T19:38:12;36.50;39.00
21801;DHT22;11062;51.164;16.924;2023-07-20T19:40:40;36.40;39.50
21801;DHT22;11062;51.164;16.924;2023-07-20T19:43:06;36.20;39.30
21801;DHT22;11062;51.164;16.924;2023-07-20T19:45:38;36.30;39.60
21801;DHT22;11062;51.164;16.924;2023-07-20T19:48:07;36.30;39.50
21801;DHT22;11062;51.164;16.924;2023-07-20T19:50:33;36.20;39.60
21801;DHT22;11062;51.164;16.924;2023-07-20T19:53:01;36.10;39.70
21801;DHT22;11062;51.164;16.924;2023-07-20T19:55:29;36.00;40.00
21801;DHT22;11062;51.164;16.924;2023-07-20T19:57:58;36.00;40.40
21801;DHT22;11062;51.164;16.924;2023-07-20T20:00:24;35.80;40.80
21801;DHT22;11062;51.164;16.924;2023-07-20T20:02:53;35.70;40.70
21801;DHT22;11062;51.164;16.924;2023-07-20T20:05:22;35.70;41.10
21801;DHT22;11062;51.164;16.924;2023-07-20T20:07:51;35.60;41.10
21801;DHT22;11062;51.164;16.924;2023-07-20T20:10:19;35.50;41.50
21801;DHT22;11062;51.164;16.924;2023-07-20T20:12:45;35.40;41.70
21801;DHT22;11062;51.164;16.924;2023-07-20T20:15:11;35.30;42.00